sensor_id;sensor_type;location;lat;lon;timestamp;P1;durP1;ratioP1;P2;durP2;ratioP2
31348;SDS011;17976;48.480;11.946;2022-12-07T12:35:42;19.13;;;10.13;;
31348;SDS011;17976;48.480;11.946;2022-12-07T12:38:25;16.42;;;9.07;;
31348;SDS011;17976;48.480;11.946;2022-12-07T12:40:52;15.65;;;8.63;;
31348;SDS011;17976;48.480;11.946;2022-12-07T12:48:48;13.02;;;7.07;;
31348;SDS011;17976;48.480;11.946;2022-12-07T12:54:56;12.93;;;7.75;;
31348;SDS011;17976;48.480;11.946;2022-12-07T13:02:08;11.30;;;6.25;;
31348;SDS011;17976;48.480;11.946;2022-12-07T13:07:47;11.20;;;6.45;;
31348;SDS011;17976;48.480;11.946;2022-12-07T13:10:18;12.65;;;7.10;;
31348;SDS011;17976;48.480;11.946;2022-12-07T13:15:41;16.27;;;9.50;;
31348;SDS011;17976;48.480;11.946;2022-12-07T13:20:40;13.70;;;7.35;;
31348;SDS011;17976;48.480;11.946;2022-12-07T13:23:08;14.57;;;7.38;;
31348;SDS011;17976;48.480;11.946;2022-12-07T13:25:41;18.00;;;8.30;;
31348;SDS011;17976;48.480;11.946;2022-12-07T13:28:15;12.57;;;7.13;;
31348;SDS011;17976;48.480;11.946;2022-12-07T13:30:46;9.90;;;6.13;;
31348;SDS011;17976;48.480;11.946;2022-12-07T13:33:12;15.65;;;6.80;;
31348;SDS011;17976;48.480;11.946;2022-12-07T13:35:40;11.18;;;7.10;;
31348;SDS011;17976;48.480;11.946;2022-12-07T13:44:13;11.43;;;6.78;;
31348;SDS011;17976;48.480;11.946;2022-12-07T13:49:16;21.13;;;8.77;;
31348;SDS011;17976;48.480;11.946;2022-12-07T13:51:42;21.77;;;11.50;;
31348;SDS011;17976;48.480;11.946;2022-12-07T13:54:09;18.23;;;8.48;;
31348;SDS011;17976;48.480;11.946;2022-12-07T13:56:36;15.43;;;7.97;;
31348;SDS011;17976;48.480;11.946;2022-12-07T13:59:02;15.20;;;8.80;;
31348;SDS011;17976;48.480;11.946;2022-12-07T14:01:30;14.23;;;8.18;;
31348;SDS011;17976;48.480;11.946;2022-12-07T14:04:16;16.05;;;8.88;;
31348;SDS011;17976;48.480;11.946;2022-12-07T14:06:49;39.85;;;14.65;;
31348;SDS011;17976;48.480;11.946;2022-12-07T14:09:19;25.40;;;11.63;;
31348;SDS011;17976;48.480;11.946;2022-12-07T14:11:47;13.68;;;8.73;;
31348;SDS011;17976;48.480;11.946;2022-12-07T14:14:16;17.92;;;9.35;;
31348;SDS011;17976;48.480;11.946;2022-12-07T14:16:43;24.23;;;12.25;;
31348;SDS011;17976;48.480;11.946;2022-12-07T14:22:08;16.23;;;8.73;;
31348;SDS011;17976;48.480;11.946;2022-12-07T14:24:42;21.15;;;13.00;;
31348;SDS011;17976;48.480;11.946;2022-12-07T14:27:21;14.98;;;8.07;;
31348;SDS011;17976;48.480;11.946;2022-12-07T14:29:47;12.85;;;7.88;;
31348;SDS011;17976;48.480;11.946;2022-12-07T14:32:17;11.73;;;7.05;;
31348;SDS011;17976;48.480;11.946;2022-12-07T14:34:58;14.38;;;8.30;;
31348;SDS011;17976;48.480;11.946;2022-12-07T14:37:24;16.52;;;8.95;;
31348;SDS011;17976;48.480;11.946;2022-12-07T14:39:50;17.55;;;8.60;;
31348;SDS011;17976;48.480;11.946;2022-12-07T14:42:16;20.35;;;10.43;;
31348;SDS011;17976;48.480;11.946;2022-12-07T14:44:42;15.52;;;8.18;;
31348;SDS011;17976;48.480;11.946;2022-12-07T14:47:09;21.45;;;10.20;;
31348;SDS011;17976;48.480;11.946;2022-12-07T14:49:36;18.52;;;8.73;;
31348;SDS011;17976;48.480;11.946;2022-12-07T14:52:02;18.02;;;9.13;;
31348;SDS011;17976;48.480;11.946;2022-12-07T14:54:29;16.45;;;8.73;;
31348;SDS011;17976;48.480;11.946;2022-12-07T14:56:56;16.40;;;8.63;;
31348;SDS011;17976;48.480;11.946;2022-12-07T14:59:22;16.67;;;8.45;;
31348;SDS011;17976;48.480;11.946;2022-12-07T15:01:48;15.30;;;8.85;;
31348;SDS011;17976;48.480;11.946;2022-12-07T15:04:14;14.60;;;8.43;;
31348;SDS011;17976;48.480;11.946;2022-12-07T15:06:40;13.10;;;7.75;;
31348;SDS011;17976;48.480;11.946;2022-12-07T15:09:08;15.18;;;8.10;;
31348;SDS011;17976;48.480;11.946;2022-12-07T15:11:35;16.30;;;7.75;;
31348;SDS011;17976;48.480;11.946;2022-12-07T15:14:01;15.30;;;8.50;;
31348;SDS011;17976;48.480;11.946;2022-12-07T15:16:33;12.75;;;7.40;;
31348;SDS011;17976;48.480;11.946;2022-12-07T15:18:59;16.58;;;7.13;;
31348;SDS011;17976;48.480;11.946;2022-12-07T15:21:25;14.82;;;7.50;;
31348;SDS011;17976;48.480;11.946;2022-12-07T15:23:51;13.90;;;7.53;;
31348;SDS011;17976;48.480;11.946;2022-12-07T15:26:17;14.57;;;7.15;;
31348;SDS011;17976;48.480;11.946;2022-12-07T15:28:44;15.98;;;7.63;;
31348;SDS011;17976;48.480;11.946;2022-12-07T15:31:11;16.08;;;8.15;;
31348;SDS011;17976;48.480;11.946;2022-12-07T15:33:37;28.80;;;11.48;;
31348;SDS011;17976;48.480;11.946;2022-12-07T15:36:03;25.55;;;12.68;;
31348;SDS011;17976;48.480;11.946;2022-12-07T15:38:29;32.30;;;12.95;;
31348;SDS011;17976;48.480;11.946;2022-12-07T15:40:55;31.40;;;13.98;;
31348;SDS011;17976;48.480;11.946;2022-12-07T15:43:21;28.17;;;13.60;;
31348;SDS011;17976;48.480;11.946;2022-12-07T15:46:06;22.95;;;13.38;;
31348;SDS011;17976;48.480;11.946;2022-12-07T15:48:32;28.52;;;15.15;;
31348;SDS011;17976;48.480;11.946;2022-12-07T15:51:08;22.50;;;12.45;;
31348;SDS011;17976;48.480;11.946;2022-12-07T15:53:34;18.23;;;11.00;;
31348;SDS011;17976;48.480;11.946;2022-12-07T15:56:00;19.75;;;11.35;;
31348;SDS011;17976;48.480;11.946;2022-12-07T15:58:26;17.98;;;10.68;;
31348;SDS011;17976;48.480;11.946;2022-12-07T16:00:52;14.98;;;9.98;;
31348;SDS011;17976;48.480;11.946;2022-12-07T16:03:18;14.88;;;9.30;;
31348;SDS011;17976;48.480;11.946;2022-12-07T16:05:51;23.08;;;11.82;;
31348;SDS011;17976;48.480;11.946;2022-12-07T16:08:18;24.25;;;10.23;;
31348;SDS011;17976;48.480;11.946;2022-12-07T16:10:44;22.17;;;12.30;;
31348;SDS011;17976;48.480;11.946;2022-12-07T16:13:10;22.00;;;11.00;;
31348;SDS011;17976;48.480;11.946;2022-12-07T16:15:39;25.90;;;12.57;;
31348;SDS011;17976;48.480;11.946;2022-12-07T16:18:05;21.25;;;11.35;;
31348;SDS011;17976;48.480;11.946;2022-12-07T16:20:31;30.45;;;17.27;;
31348;SDS011;17976;48.480;11.946;2022-12-07T16:22:58;20.95;;;10.30;;
31348;SDS011;17976;48.480;11.946;2022-12-07T16:25:24;19.17;;;10.57;;
31348;SDS011;17976;48.480;11.946;2022-12-07T16:27:53;18.70;;;10.80;;
31348;SDS011;17976;48.480;11.946;2022-12-07T16:30:19;19.13;;;9.48;;
31348;SDS011;17976;48.480;11.946;2022-12-07T16:32:45;19.35;;;10.52;;
31348;SDS011;17976;48.480;11.946;2022-12-07T16:35:11;19.75;;;10.30;;
31348;SDS011;17976;48.480;11.946;2022-12-07T16:37:38;22.98;;;11.20;;
31348;SDS011;17976;48.480;11.946;2022-12-07T16:40:04;25.58;;;11.30;;
31348;SDS011;17976;48.480;11.946;2022-12-07T16:42:34;39.17;;;15.80;;
31348;SDS011;17976;48.480;11.946;2022-12-07T16:45:00;33.70;;;13.05;;
31348;SDS011;17976;48.480;11.946;2022-12-07T16:47:26;21.48;;;10.93;;
31348;SDS011;17976;48.480;11.946;2022-12-07T16:49:52;22.85;;;11.07;;
31348;SDS011;17976;48.480;11.946;2022-12-07T16:52:19;20.02;;;9.80;;
31348;SDS011;17976;48.480;11.946;2022-12-07T16:54:45;18.40;;;10.07;;
31348;SDS011;17976;48.480;11.946;2022-12-07T16:57:11;20.58;;;10.60;;
31348;SDS011;17976;48.480;11.946;2022-12-07T16:59:37;18.23;;;11.60;;
31348;SDS011;17976;48.480;11.946;2022-12-07T17:02:03;27.30;;;12.18;;
31348;SDS011;17976;48.480;11.946;2022-12-07T17:04:31;19.00;;;10.80;;
31348;SDS011;17976;48.480;11.946;2022-12-07T17:06:57;20.60;;;10.82;;
31348;SDS011;17976;48.480;11.946;2022-12-07T17:09:23;23.10;;;11.15;;
31348;SDS011;17976;48.480;11.946;2022-12-07T17:11:50;29.67;;;16.55;;
31348;SDS011;17976;48.480;11.946;2022-12-07T17:14:16;22.52;;;12.93;;
31348;SDS011;17976;48.480;11.946;2022-12-07T17:17:01;26.73;;;16.23;;
31348;SDS011;17976;48.480;11.946;2022-12-07T17:19:27;27.92;;;14.00;;
31348;SDS011;17976;48.480;11.946;2022-12-07T17:21:53;33.80;;;17.33;;
31348;SDS011;17976;48.480;11.946;2022-12-07T17:24:19;23.25;;;11.60;;
31348;SDS011;17976;48.480;11.946;2022-12-07T17:26:45;23.02;;;12.20;;
31348;SDS011;17976;48.480;11.946;2022-12-07T17:29:13;23.52;;;13.02;;
31348;SDS011;17976;48.480;11.946;2022-12-07T17:31:39;29.60;;;14.30;;
31348;SDS011;17976;48.480;11.946;2022-12-07T17:34:10;32.22;;;15.05;;
31348;SDS011;17976;48.480;11.946;2022-12-07T17:36:36;28.92;;;14.80;;
31348;SDS011;17976;48.480;11.946;2022-12-07T17:39:07;28.13;;;13.85;;
31348;SDS011;17976;48.480;11.946;2022-12-07T17:41:34;24.35;;;11.77;;
31348;SDS011;17976;48.480;11.946;2022-12-07T17:44:18;20.23;;;11.43;;
31348;SDS011;17976;48.480;11.946;2022-12-07T17:46:46;18.52;;;9.40;;
31348;SDS011;17976;48.480;11.946;2022-12-07T17:49:12;20.27;;;10.60;;
31348;SDS011;17976;48.480;11.946;2022-12-07T17:51:38;23.92;;;10.18;;
31348;SDS011;17976;48.480;11.946;2022-12-07T17:54:23;20.67;;;10.63;;
31348;SDS011;17976;48.480;11.946;2022-12-07T17:56:59;19.33;;;9.50;;
31348;SDS011;17976;48.480;11.946;2022-12-07T17:59:25;17.52;;;8.68;;
31348;SDS011;17976;48.480;11.946;2022-12-07T18:01:51;18.58;;;9.35;;
31348;SDS011;17976;48.480;11.946;2022-12-07T18:04:18;16.65;;;8.40;;
31348;SDS011;17976;48.480;11.946;2022-12-07T18:06:44;16.35;;;9.50;;
31348;SDS011;17976;48.480;11.946;2022-12-07T18:09:10;15.80;;;10.30;;
31348;SDS011;17976;48.480;11.946;2022-12-07T18:11:36;18.77;;;10.95;;
31348;SDS011;17976;48.480;11.946;2022-12-07T18:14:02;19.17;;;11.50;;
31348;SDS011;17976;48.480;11.946;2022-12-07T18:16:29;16.35;;;9.40;;
31348;SDS011;17976;48.480;11.946;2022-12-07T18:19:00;23.33;;;10.40;;
31348;SDS011;17976;48.480;11.946;2022-12-07T18:21:26;17.73;;;9.50;;
31348;SDS011;17976;48.480;11.946;2022-12-07T18:23:53;18.08;;;9.90;;
31348;SDS011;17976;48.480;11.946;2022-12-07T18:26:20;20.23;;;11.70;;
31348;SDS011;17976;48.480;11.946;2022-12-07T18:28:47;18.50;;;10.77;;
31348;SDS011;17976;48.480;11.946;2022-12-07T18:31:13;19.55;;;10.27;;
31348;SDS011;17976;48.480;11.946;2022-12-07T18:33:39;19.48;;;10.75;;
31348;SDS011;17976;48.480;11.946;2022-12-07T18:36:05;21.42;;;11.15;;
31348;SDS011;17976;48.480;11.946;2022-12-07T18:38:32;28.13;;;13.20;;
31348;SDS011;17976;48.480;11.946;2022-12-07T18:40:59;23.13;;;11.60;;
31348;SDS011;17976;48.480;11.946;2022-12-07T18:43:25;25.13;;;15.30;;
31348;SDS011;17976;48.480;11.946;2022-12-07T18:45:51;25.52;;;14.30;;
31348;SDS011;17976;48.480;11.946;2022-12-07T18:48:18;18.92;;;10.60;;
31348;SDS011;17976;48.480;11.946;2022-12-07T18:50:45;19.77;;;11.00;;
31348;SDS011;17976;48.480;11.946;2022-12-07T18:53:11;17.95;;;10.63;;
31348;SDS011;17976;48.480;11.946;2022-12-07T18:55:37;20.83;;;10.02;;
31348;SDS011;17976;48.480;11.946;2022-12-07T18:58:04;23.45;;;9.77;;
31348;SDS011;17976;48.480;11.946;2022-12-07T19:00:31;17.65;;;9.65;;
31348;SDS011;17976;48.480;11.946;2022-12-07T19:02:58;21.73;;;12.35;;
31348;SDS011;17976;48.480;11.946;2022-12-07T19:05:24;23.17;;;9.90;;
31348;SDS011;17976;48.480;11.946;2022-12-07T19:07:51;17.83;;;9.93;;
31348;SDS011;17976;48.480;11.946;2022-12-07T19:10:17;15.20;;;9.07;;
31348;SDS011;17976;48.480;11.946;2022-12-07T19:12:44;19.58;;;9.43;;
31348;SDS011;17976;48.480;11.946;2022-12-07T19:15:10;18.10;;;8.45;;
31348;SDS011;17976;48.480;11.946;2022-12-07T19:17:37;17.25;;;9.50;;
31348;SDS011;17976;48.480;11.946;2022-12-07T19:20:03;14.00;;;7.80;;
31348;SDS011;17976;48.480;11.946;2022-12-07T19:22:30;14.07;;;8.13;;
31348;SDS011;17976;48.480;11.946;2022-12-07T19:24:56;18.75;;;10.32;;
31348;SDS011;17976;48.480;11.946;2022-12-07T19:27:22;14.52;;;7.97;;
31348;SDS011;17976;48.480;11.946;2022-12-07T19:29:48;16.65;;;8.77;;
31348;SDS011;17976;48.480;11.946;2022-12-07T19:32:15;14.88;;;8.35;;
31348;SDS011;17976;48.480;11.946;2022-12-07T19:34:42;16.63;;;8.80;;
31348;SDS011;17976;48.480;11.946;2022-12-07T19:37:08;19.80;;;9.05;;
31348;SDS011;17976;48.480;11.946;2022-12-07T19:39:38;17.70;;;8.68;;
31348;SDS011;17976;48.480;11.946;2022-12-07T19:42:04;18.73;;;10.15;;
31348;SDS011;17976;48.480;11.946;2022-12-07T19:44:30;32.05;;;15.55;;
31348;SDS011;17976;48.480;11.946;2022-12-07T19:46:58;30.10;;;16.08;;
31348;SDS011;17976;48.480;11.946;2022-12-07T19:49:25;25.02;;;14.38;;
31348;SDS011;17976;48.480;11.946;2022-12-07T19:51:52;31.80;;;15.50;;
31348;SDS011;17976;48.480;11.946;2022-12-07T19:54:19;34.50;;;16.40;;
31348;SDS011;17976;48.480;11.946;2022-12-07T19:56:46;28.83;;;14.90;;
31348;SDS011;17976;48.480;11.946;2022-12-07T19:59:13;29.85;;;16.20;;
31348;SDS011;17976;48.480;11.946;2022-12-07T20:01:39;28.38;;;14.13;;
31348;SDS011;17976;48.480;11.946;2022-12-07T20:04:06;28.55;;;14.32;;
31348;SDS011;17976;48.480;11.946;2022-12-07T20:06:33;31.20;;;15.10;;
31348;SDS011;17976;48.480;11.946;2022-12-07T20:08:59;26.67;;;15.30;;
31348;SDS011;17976;48.480;11.946;2022-12-07T20:11:25;22.95;;;12.07;;
31348;SDS011;17976;48.480;11.946;2022-12-07T20:14:10;26.60;;;13.23;;
31348;SDS011;17976;48.480;11.946;2022-12-07T20:16:37;28.63;;;12.73;;
31348;SDS011;17976;48.480;11.946;2022-12-07T20:19:08;25.50;;;12.98;;
31348;SDS011;17976;48.480;11.946;2022-12-07T20:21:34;24.33;;;12.15;;
31348;SDS011;17976;48.480;11.946;2022-12-07T20:24:02;29.35;;;13.02;;
31348;SDS011;17976;48.480;11.946;2022-12-07T20:26:28;26.48;;;12.98;;
31348;SDS011;17976;48.480;11.946;2022-12-07T20:28:54;22.75;;;11.93;;
31348;SDS011;17976;48.480;11.946;2022-12-07T20:31:20;23.98;;;11.60;;
31348;SDS011;17976;48.480;11.946;2022-12-07T20:33:46;22.27;;;11.43;;
31348;SDS011;17976;48.480;11.946;2022-12-07T20:36:14;21.10;;;10.75;;
31348;SDS011;17976;48.480;11.946;2022-12-07T20:38:40;21.88;;;10.30;;
31348;SDS011;17976;48.480;11.946;2022-12-07T20:41:07;17.70;;;9.63;;
31348;SDS011;17976;48.480;11.946;2022-12-07T20:43:53;19.85;;;10.65;;
31348;SDS011;17976;48.480;11.946;2022-12-07T20:46:19;17.00;;;9.48;;
31348;SDS011;17976;48.480;11.946;2022-12-07T20:48:45;19.98;;;10.57;;
31348;SDS011;17976;48.480;11.946;2022-12-07T20:51:11;19.27;;;10.23;;
31348;SDS011;17976;48.480;11.946;2022-12-07T20:53:37;17.70;;;9.93;;
31348;SDS011;17976;48.480;11.946;2022-12-07T20:56:03;23.67;;;10.68;;
31348;SDS011;17976;48.480;11.946;2022-12-07T20:58:29;17.70;;;9.55;;
31348;SDS011;17976;48.480;11.946;2022-12-07T21:45:04;15.60;;;8.35;;
31348;SDS011;17976;48.480;11.946;2022-12-07T21:47:31;14.98;;;8.00;;
31348;SDS011;17976;48.480;11.946;2022-12-07T21:49:57;18.30;;;8.68;;
31348;SDS011;17976;48.480;11.946;2022-12-07T21:52:23;15.40;;;8.70;;
31348;SDS011;17976;48.480;11.946;2022-12-07T21:54:49;16.00;;;8.68;;
31348;SDS011;17976;48.480;11.946;2022-12-07T21:57:15;14.27;;;8.23;;
31348;SDS011;17976;48.480;11.946;2022-12-07T21:59:41;16.92;;;9.07;;
31348;SDS011;17976;48.480;11.946;2022-12-07T22:02:09;20.52;;;9.23;;
31348;SDS011;17976;48.480;11.946;2022-12-07T22:04:38;18.23;;;8.77;;
31348;SDS011;17976;48.480;11.946;2022-12-07T22:07:04;16.55;;;8.88;;
31348;SDS011;17976;48.480;11.946;2022-12-07T22:09:30;16.77;;;9.23;;
31348;SDS011;17976;48.480;11.946;2022-12-07T22:11:56;17.02;;;9.38;;
31348;SDS011;17976;48.480;11.946;2022-12-07T22:14:22;18.70;;;9.70;;
31348;SDS011;17976;48.480;11.946;2022-12-07T22:17:06;24.20;;;10.18;;
31348;SDS011;17976;48.480;11.946;2022-12-07T22:19:32;25.17;;;12.18;;
31348;SDS011;17976;48.480;11.946;2022-12-07T22:21:59;20.55;;;10.68;;
31348;SDS011;17976;48.480;11.946;2022-12-07T22:24:25;16.45;;;9.40;;
31348;SDS011;17976;48.480;11.946;2022-12-07T22:26:51;20.50;;;9.95;;
31348;SDS011;17976;48.480;11.946;2022-12-07T22:29:17;21.92;;;9.88;;
31348;SDS011;17976;48.480;11.946;2022-12-07T22:31:43;18.45;;;10.38;;
31348;SDS011;17976;48.480;11.946;2022-12-07T22:34:17;20.15;;;10.35;;
31348;SDS011;17976;48.480;11.946;2022-12-07T22:36:44;17.50;;;8.95;;
31348;SDS011;17976;48.480;11.946;2022-12-07T22:39:10;19.52;;;10.15;;
31348;SDS011;17976;48.480;11.946;2022-12-07T22:41:36;17.52;;;9.38;;
31348;SDS011;17976;48.480;11.946;2022-12-07T22:44:02;16.50;;;8.75;;
31348;SDS011;17976;48.480;11.946;2022-12-07T22:46:29;16.95;;;9.05;;
31348;SDS011;17976;48.480;11.946;2022-12-07T22:48:57;17.30;;;9.48;;
31348;SDS011;17976;48.480;11.946;2022-12-07T22:51:28;20.40;;;9.27;;
31348;SDS011;17976;48.480;11.946;2022-12-07T22:53:54;14.40;;;8.27;;
31348;SDS011;17976;48.480;11.946;2022-12-07T22:56:21;20.23;;;8.02;;
31348;SDS011;17976;48.480;11.946;2022-12-07T22:58:47;13.38;;;7.95;;
31348;SDS011;17976;48.480;11.946;2022-12-07T23:01:14;21.90;;;8.85;;
31348;SDS011;17976;48.480;11.946;2022-12-07T23:03:43;19.45;;;9.32;;
31348;SDS011;17976;48.480;11.946;2022-12-07T23:06:33;21.50;;;9.50;;
31348;SDS011;17976;48.480;11.946;2022-12-07T23:09:01;18.73;;;9.85;;
31348;SDS011;17976;48.480;11.946;2022-12-07T23:11:29;19.67;;;9.88;;
31348;SDS011;17976;48.480;11.946;2022-12-07T23:14:15;20.50;;;10.40;;
31348;SDS011;17976;48.480;11.946;2022-12-07T23:16:42;19.67;;;11.15;;
31348;SDS011;17976;48.480;11.946;2022-12-07T23:19:08;20.88;;;10.45;;
31348;SDS011;17976;48.480;11.946;2022-12-07T23:21:34;25.55;;;11.57;;
31348;SDS011;17976;48.480;11.946;2022-12-07T23:24:00;23.20;;;11.20;;
31348;SDS011;17976;48.480;11.946;2022-12-07T23:26:26;21.38;;;11.75;;
31348;SDS011;17976;48.480;11.946;2022-12-07T23:28:52;22.67;;;11.50;;
31348;SDS011;17976;48.480;11.946;2022-12-07T23:31:19;22.70;;;11.85;;
31348;SDS011;17976;48.480;11.946;2022-12-07T23:33:45;26.35;;;12.50;;
31348;SDS011;17976;48.480;11.946;2022-12-07T23:36:12;22.20;;;11.52;;
31348;SDS011;17976;48.480;11.946;2022-12-07T23:38:39;22.23;;;10.95;;
31348;SDS011;17976;48.480;11.946;2022-12-07T23:41:06;23.65;;;11.32;;
31348;SDS011;17976;48.480;11.946;2022-12-07T23:43:33;22.45;;;11.38;;
31348;SDS011;17976;48.480;11.946;2022-12-07T23:45:59;24.20;;;11.88;;
31348;SDS011;17976;48.480;11.946;2022-12-07T23:48:25;21.35;;;11.45;;
31348;SDS011;17976;48.480;11.946;2022-12-07T23:50:54;27.90;;;11.88;;
31348;SDS011;17976;48.480;11.946;2022-12-07T23:53:20;21.63;;;12.57;;
31348;SDS011;17976;48.480;11.946;2022-12-07T23:55:46;22.42;;;11.60;;
31348;SDS011;17976;48.480;11.946;2022-12-07T23:58:12;24.85;;;12.80;;
